Monte Tamaro — DFKP2 — position and weather

sailwx.info

Track history (hours):
 
Tides and Currents Weather Stations Pressure Air Temp Water Temp Dewpoint Dewpoint Depression Visibility Wind Speed Wind Dir Waves Ship Positions

Monte Tamaro

Last reported at 2015-Mar-28 21:00 UTC. Time now 2015-Mar-29 01:05 UTC.
Position N 21°48' W 068°06'.

Length 272.1 m; beam 40.1 m; draft 13.2 m.

Type: Ship (hazmat cat B). MMSI: 218132000.

Wind from 280 at 28 knots

Waves 1.0 meters (3 feet), 3 second period

Barometer 1017.2 mb
Air temperature 30.3 ° C
Visibility: greater than 10.8 NM
Dewpoint 21.7 ° C
Water temperature 26.0 ° C

Date/timePositionNaut miles runAvg speedWind from/ knotsBaromVisibWave heightAir tempDewpointWater temp
2015-Mar-28 21:00N 21°48' W 068°06'16918.8 280 / 281017.210.8 1.030.321.726.0
2015-Mar-28 12:00N 23°06' W 070°48'5518.4 280 / 311017.910.8 1.028.123.526.0
2015-Mar-28 09:00N 23°30' W 071°42'16418.3 150 / 151015.610.8 26.022.326.0
2015-Mar-28 00:00N 24°42' W 074°24'21517.9 150 / 161013.910.8 25.922.626.0
2015-Mar-27 12:00N 26°00' W 078°06'5120.6 160 / 151013.7 5.4 2.024.921.426.0
2015-Mar-27 09:33N 26°13' W 079°00'1918.8
2015-Mar-27 08:33N 26°10' W 079°21'1919.2
2015-Mar-27 07:33N 26°08' W 079°42'1918.6
2015-Mar-27 06:33N 26°06' W 080°03'4 4.0
2015-Mar-27 05:33N 26°04' W 080°07'0 0.0
2015-Mar-27 04:33N 26°04' W 080°07'0 0.0
2015-Mar-27 03:33N 26°04' W 080°07'0 0.0
2015-Mar-27 02:33N 26°04' W 080°07'0 0.0
2015-Mar-27 01:33N 26°04' W 080°07'0 0.0
2015-Mar-27 00:33N 26°04' W 080°07'0 0.0
2015-Mar-26 23:33N 26°04' W 080°07'0 0.0
2015-Mar-26 22:33N 26°04' W 080°07'0 0.0
2015-Mar-26 21:24N 26°04' W 080°07'0 0.0
2015-Mar-26 20:27N 26°04' W 080°07'0 0.0
2015-Mar-26 19:27N 26°04' W 080°07'0 0.0
2015-Mar-26 18:27N 26°04' W 080°07'0 0.0
2015-Mar-26 17:30N 26°04' W 080°07'0 0.0
2015-Mar-26 16:30N 26°04' W 080°07'0 0.0
2015-Mar-26 15:30N 26°04' W 080°07'0 0.0
2015-Mar-26 14:33N 26°04' W 080°07'0 0.0
2015-Mar-26 13:33N 26°04' W 080°07'0 0.0
2015-Mar-26 12:33N 26°04' W 080°07'1 1.1
2015-Mar-26 11:33N 26°05' W 080°07'6 5.7
2015-Mar-26 10:34N 26°06' W 080°01'3 3.1
2015-Mar-26 09:34N 26°09' W 080°00'1616.4
2015-Mar-26 08:33N 26°25' W 079°58'1918.8
2015-Mar-26 07:33N 26°44' W 079°57'1918.7
2015-Mar-26 06:34N 27°02' W 079°56'13120.0
2015-Mar-26 00:00N 29°12' W 080°18'   070 / 161019.110.8 1.022.018.224.0
2015-Mar-22 12:00N 36°12' W 075°18'137 3.8 330 / 151017.5 5.4 9.9 7.0 5.0
2015-Mar-21 00:03N 38°26' W 074°44'918.2
2015-Mar-20 23:33N 38°34' W 074°50'10 9.8
2015-Mar-20 22:33N 38°42' W 074°57'10 9.6
2015-Mar-20 21:34N 38°50' W 075°05'1413.9
2015-Mar-20 20:34N 39°03' W 075°10'1717.1
2015-Mar-20 19:33N 39°17' W 075°22'1615.9
2015-Mar-20 18:33N 39°31' W 075°33'1211.8
2015-Mar-20 17:33N 39°42' W 075°31'9 9.3
2015-Mar-20 16:33N 39°49' W 075°23'9 8.7
2015-Mar-20 15:33N 39°53' W 075°12'3 3.3
2015-Mar-20 14:33N 39°54' W 075°08'0 0.0
2015-Mar-20 13:33N 39°54' W 075°08'0 0.0
2015-Mar-20 12:28N 39°54' W 075°08'0 0.0
2015-Mar-20 11:31N 39°54' W 075°08'0 0.0
2015-Mar-20 10:31N 39°54' W 075°08'0 0.0
2015-Mar-20 09:31N 39°54' W 075°08'0 0.0
2015-Mar-20 08:31N 39°54' W 075°08'0 0.0
2015-Mar-20 07:31N 39°54' W 075°08'0 0.0
2015-Mar-20 06:31N 39°54' W 075°08'0 0.0
2015-Mar-20 05:31N 39°54' W 075°08'0 0.0
2015-Mar-20 04:28N 39°54' W 075°08'0 0.0
2015-Mar-20 03:31N 39°54' W 075°08'2 2.2
2015-Mar-20 02:34N 39°53' W 075°10'1110.7
2015-Mar-20 01:33N 39°49' W 075°24'1111.1
2015-Mar-20 00:33N 39°40' W 075°32'1312.9
2015-Mar-19 23:33N 39°27' W 075°33'1514.6
2015-Mar-19 22:33N 39°16' W 075°21'1514.9
2015-Mar-19 21:33N 39°04' W 075°10'1514.9
2015-Mar-19 20:33N 38°50' W 075°04'9 9.2
2015-Mar-19 19:33N 38°43' W 074°55'9 9.5
2015-Mar-19 18:33N 38°36' W 074°47'7619.0
2015-Mar-19 14:33N 39°39' W 073°53'4715.0
2015-Mar-19 11:26N 40°26' W 073°50'910.3
2015-Mar-19 10:34N 40°31' W 074°00'9 9.1
2015-Mar-19 09:33N 40°40' W 074°04'1 0.8
2015-Mar-19 08:33N 40°40' W 074°05'0 0.0
2015-Mar-19 07:30N 40°40' W 074°05'0 0.0
2015-Mar-19 06:30N 40°40' W 074°05'0 0.0
2015-Mar-19 05:15N 40°40' W 074°05'0 0.0
2015-Mar-19 04:30N 40°40' W 074°05'0 0.0
2015-Mar-19 03:30N 40°40' W 074°05'0 0.0
2015-Mar-19 02:30N 40°40' W 074°05'0 0.0
2015-Mar-19 01:30N 40°40' W 074°05'0 0.0
2015-Mar-19 00:30N 40°40' W 074°05'0 0.0
2015-Mar-18 23:33N 40°40' W 074°05'0 0.0
2015-Mar-18 22:30N 40°40' W 074°05'0 0.0
2015-Mar-18 21:30N 40°40' W 074°05'  
Track history (hours):
 
Tides and Currents Weather Stations Pressure Air Temp Water Temp Dewpoint Dewpoint Depression Visibility Wind Speed Wind Dir Waves Ship Positions

Monte Tamaro

Last reported at 2015-Mar-28 21:00 UTC. Time now 2015-Mar-29 01:05 UTC.
Position N 21°48' W 068°06'.

Length 272.1 m; beam 40.1 m; draft 13.2 m.

Type: Ship (hazmat cat B). MMSI: 218132000.

Wind from 280 at 28 knots

Waves 1.0 meters (3 feet), 3 second period

Barometer 1017.2 mb
Air temperature 30.3 ° C
Visibility: greater than 10.8 NM
Dewpoint 21.7 ° C
Water temperature 26.0 ° C

Date/timePositionNaut miles runAvg speedWind from/ knotsBaromVisibWave heightAir tempDewpointWater temp
2015-Mar-28 21:00N 21°48' W 068°06'16918.8 280 / 281017.210.8 1.030.321.726.0
2015-Mar-28 12:00N 23°06' W 070°48'5518.4 280 / 311017.910.8 1.028.123.526.0
2015-Mar-28 09:00N 23°30' W 071°42'16418.3 150 / 151015.610.8 26.022.326.0
2015-Mar-28 00:00N 24°42' W 074°24'21517.9 150 / 161013.910.8 25.922.626.0
2015-Mar-27 12:00N 26°00' W 078°06'5120.6 160 / 151013.7 5.4 2.024.921.426.0
2015-Mar-27 09:33N 26°13' W 079°00'1918.8
2015-Mar-27 08:33N 26°10' W 079°21'1919.2
2015-Mar-27 07:33N 26°08' W 079°42'1918.6
2015-Mar-27 06:33N 26°06' W 080°03'4 4.0
2015-Mar-27 05:33N 26°04' W 080°07'0 0.0
2015-Mar-27 04:33N 26°04' W 080°07'0 0.0
2015-Mar-27 03:33N 26°04' W 080°07'0 0.0
2015-Mar-27 02:33N 26°04' W 080°07'0 0.0
2015-Mar-27 01:33N 26°04' W 080°07'0 0.0
2015-Mar-27 00:33N 26°04' W 080°07'0 0.0
2015-Mar-26 23:33N 26°04' W 080°07'0 0.0
2015-Mar-26 22:33N 26°04' W 080°07'0 0.0
2015-Mar-26 21:24N 26°04' W 080°07'0 0.0
2015-Mar-26 20:27N 26°04' W 080°07'0 0.0
2015-Mar-26 19:27N 26°04' W 080°07'0 0.0
2015-Mar-26 18:27N 26°04' W 080°07'0 0.0
2015-Mar-26 17:30N 26°04' W 080°07'0 0.0
2015-Mar-26 16:30N 26°04' W 080°07'0 0.0
2015-Mar-26 15:30N 26°04' W 080°07'0 0.0
2015-Mar-26 14:33N 26°04' W 080°07'0 0.0
2015-Mar-26 13:33N 26°04' W 080°07'0 0.0
2015-Mar-26 12:33N 26°04' W 080°07'1 1.1
2015-Mar-26 11:33N 26°05' W 080°07'6 5.7
2015-Mar-26 10:34N 26°06' W 080°01'3 3.1
2015-Mar-26 09:34N 26°09' W 080°00'1616.4
2015-Mar-26 08:33N 26°25' W 079°58'1918.8
2015-Mar-26 07:33N 26°44' W 079°57'1918.7
2015-Mar-26 06:34N 27°02' W 079°56'13120.0
2015-Mar-26 00:00N 29°12' W 080°18'   070 / 161019.110.8 1.022.018.224.0
2015-Mar-22 12:00N 36°12' W 075°18'137 3.8 330 / 151017.5 5.4 9.9 7.0 5.0
2015-Mar-21 00:03N 38°26' W 074°44'918.2
2015-Mar-20 23:33N 38°34' W 074°50'10 9.8
2015-Mar-20 22:33N 38°42' W 074°57'10 9.6
2015-Mar-20 21:34N 38°50' W 075°05'1413.9
2015-Mar-20 20:34N 39°03' W 075°10'1717.1
2015-Mar-20 19:33N 39°17' W 075°22'1615.9
2015-Mar-20 18:33N 39°31' W 075°33'1211.8
2015-Mar-20 17:33N 39°42' W 075°31'9 9.3
2015-Mar-20 16:33N 39°49' W 075°23'9 8.7
2015-Mar-20 15:33N 39°53' W 075°12'3 3.3
2015-Mar-20 14:33N 39°54' W 075°08'0 0.0
2015-Mar-20 13:33N 39°54' W 075°08'0 0.0
2015-Mar-20 12:28N 39°54' W 075°08'0 0.0
2015-Mar-20 11:31N 39°54' W 075°08'0 0.0
2015-Mar-20 10:31N 39°54' W 075°08'0 0.0
2015-Mar-20 09:31N 39°54' W 075°08'0 0.0
2015-Mar-20 08:31N 39°54' W 075°08'0 0.0
2015-Mar-20 07:31N 39°54' W 075°08'0 0.0
2015-Mar-20 06:31N 39°54' W 075°08'0 0.0
2015-Mar-20 05:31N 39°54' W 075°08'0 0.0
2015-Mar-20 04:28N 39°54' W 075°08'0 0.0
2015-Mar-20 03:31N 39°54' W 075°08'2 2.2
2015-Mar-20 02:34N 39°53' W 075°10'1110.7
2015-Mar-20 01:33N 39°49' W 075°24'1111.1
2015-Mar-20 00:33N 39°40' W 075°32'1312.9
2015-Mar-19 23:33N 39°27' W 075°33'1514.6
2015-Mar-19 22:33N 39°16' W 075°21'1514.9
2015-Mar-19 21:33N 39°04' W 075°10'1514.9
2015-Mar-19 20:33N 38°50' W 075°04'9 9.2
2015-Mar-19 19:33N 38°43' W 074°55'9 9.5
2015-Mar-19 18:33N 38°36' W 074°47'7619.0
2015-Mar-19 14:33N 39°39' W 073°53'4715.0
2015-Mar-19 11:26N 40°26' W 073°50'910.3
2015-Mar-19 10:34N 40°31' W 074°00'9 9.1
2015-Mar-19 09:33N 40°40' W 074°04'1 0.8
2015-Mar-19 08:33N 40°40' W 074°05'0 0.0
2015-Mar-19 07:30N 40°40' W 074°05'0 0.0
2015-Mar-19 06:30N 40°40' W 074°05'0 0.0
2015-Mar-19 05:15N 40°40' W 074°05'0 0.0
2015-Mar-19 04:30N 40°40' W 074°05'0 0.0
2015-Mar-19 03:30N 40°40' W 074°05'0 0.0
2015-Mar-19 02:30N 40°40' W 074°05'0 0.0
2015-Mar-19 01:30N 40°40' W 074°05'0 0.0
2015-Mar-19 00:30N 40°40' W 074°05'0 0.0
2015-Mar-18 23:33N 40°40' W 074°05'0 0.0
2015-Mar-18 22:30N 40°40' W 074°05'0 0.0
2015-Mar-18 21:30N 40°40' W 074°05'  

Dump ship's entire track history